createdAt,value
2023-03-29T00:00:24.348Z,9.12
2023-03-29T00:02:08.016Z,9.63
2023-03-29T00:03:56.629Z,9.44
2023-03-29T00:05:49.489Z,10.47
2023-03-29T00:07:35.307Z,9.46
2023-03-29T00:09:11.639Z,9.09
2023-03-29T00:10:56.708Z,10.05
2023-03-29T00:12:38.032Z,9.93
2023-03-29T00:14:18.793Z,10.54
2023-03-29T00:15:54.955Z,11.03
2023-03-29T00:17:28.865Z,10.83
2023-03-29T00:19:04.335Z,10.12
2023-03-29T00:20:38.119Z,10.49
2023-03-29T00:22:11.129Z,10.57
2023-03-29T00:23:38.344Z,10.85
2023-03-29T00:25:13.850Z,10.97
2023-03-29T00:26:54.715Z,10.34
2023-03-29T00:28:28.118Z,10.43
2023-03-29T00:30:04.091Z,9.92
2023-03-29T00:31:35.902Z,10.42
2023-03-29T00:33:21.026Z,9.92
2023-03-29T00:35:06.400Z,10.60
2023-03-29T00:36:41.450Z,9.83
2023-03-29T00:38:26.185Z,10.53
2023-03-29T00:39:48.262Z,10.07
2023-03-29T00:41:24.385Z,9.70
2023-03-29T00:43:01.081Z,10.71
2023-03-29T00:46:46.492Z,9.53
2023-03-29T00:48:31.289Z,10.37
2023-03-29T00:50:06.052Z,9.54
2023-03-29T00:51:39.483Z,10.00
2023-03-29T00:53:20.167Z,9.27
2023-03-29T00:54:43.285Z,9.30
2023-03-29T00:56:36.667Z,9.56
2023-03-29T00:57:58.783Z,9.92
2023-03-29T00:59:40.023Z,9.00
2023-03-29T01:01:15.437Z,9.28
2023-03-29T01:02:51.012Z,10.01
2023-03-29T01:04:36.550Z,9.79
2023-03-29T01:06:00.598Z,10.18
2023-03-29T01:07:41.563Z,11.75
2023-03-29T01:09:14.779Z,12.11
2023-03-29T01:11:05.063Z,14.07
2023-03-29T01:12:50.441Z,12.65
2023-03-29T01:14:40.629Z,13.23
2023-03-29T01:16:27.460Z,12.72
2023-03-29T01:18:02.044Z,12.20
2023-03-29T01:19:49.391Z,11.21
2023-03-29T01:21:35.207Z,10.27
2023-03-29T01:23:09.346Z,10.15
2023-03-29T01:24:42.488Z,9.48
2023-03-29T01:26:27.668Z,9.95
2023-03-29T01:27:57.327Z,10.21
2023-03-29T01:29:30.690Z,10.34
2023-03-29T01:30:56.825Z,9.59
2023-03-29T01:32:30.322Z,9.55
2023-03-29T01:34:15.473Z,9.77
2023-03-29T01:36:04.100Z,10.72
2023-03-29T01:37:50.586Z,10.39
2023-03-29T01:39:45.453Z,9.28
2023-03-29T01:41:30.604Z,10.54
2023-03-29T01:43:11.265Z,9.56
2023-03-29T01:44:37.527Z,9.80
2023-03-29T01:46:22.944Z,10.11
2023-03-29T01:48:04.326Z,9.98
2023-03-29T01:49:37.697Z,9.55
2023-03-29T01:51:11.390Z,10.42
2023-03-29T01:52:33.319Z,10.24
2023-03-29T01:54:06.553Z,10.61
2023-03-29T01:55:39.989Z,10.64
2023-03-29T01:57:16.334Z,10.68
2023-03-29T01:58:56.230Z,10.76
2023-03-29T02:00:49.988Z,10.91
2023-03-29T02:02:19.282Z,10.78
2023-03-29T02:04:06.278Z,11.06
2023-03-29T02:06:00.469Z,10.13
2023-03-29T02:07:41.913Z,11.83
2023-03-29T02:09:07.129Z,12.25
2023-03-29T02:10:29.386Z,14.58
2023-03-29T02:11:58.486Z,20.28
2023-03-29T02:13:32.321Z,23.68
2023-03-29T02:15:18.032Z,22.92
2023-03-29T02:16:51.917Z,17.13
2023-03-29T02:18:28.167Z,17.22
2023-03-29T02:20:13.624Z,15.51
2023-03-29T02:21:49.732Z,15.58
2023-03-29T02:23:21.425Z,15.76
2023-03-29T02:24:48.592Z,15.44
2023-03-29T02:26:36.323Z,15.46
2023-03-29T02:27:58.067Z,15.66
2023-03-29T02:29:33.552Z,14.73
2023-03-29T02:31:09.299Z,13.39
2023-03-29T02:32:55.417Z,13.12
2023-03-29T02:34:19.217Z,12.13
2023-03-29T02:35:53.557Z,11.79
2023-03-29T02:37:46.361Z,11.24
2023-03-29T02:39:17.761Z,11.99
2023-03-29T02:41:00.073Z,12.03
2023-03-29T02:42:34.061Z,11.68
2023-03-29T02:44:19.809Z,11.33
2023-03-29T02:45:56.819Z,10.51
2023-03-29T02:47:42.300Z,10.20
2023-03-29T02:49:16.407Z,10.73
2023-03-29T02:50:50.334Z,10.15
2023-03-29T02:52:31.482Z,10.49
2023-03-29T02:54:16.613Z,10.24
2023-03-29T02:55:50.473Z,9.68
2023-03-29T02:57:38.292Z,9.26
2023-03-29T02:59:14.280Z,9.44
2023-03-29T03:00:38.795Z,9.10
2023-03-29T03:02:23.812Z,9.57
2023-03-29T03:04:09.415Z,9.48
2023-03-29T03:05:44.056Z,9.78
2023-03-29T03:07:28.621Z,10.31
2023-03-29T03:09:13.969Z,11.07
2023-03-29T03:10:52.209Z,11.69
2023-03-29T03:12:39.465Z,10.81
2023-03-29T03:14:15.357Z,10.94
2023-03-29T03:15:50.644Z,11.07
2023-03-29T03:17:24.705Z,14.86
2023-03-29T03:18:58.494Z,17.01
2023-03-29T03:20:43.802Z,18.05
2023-03-29T03:22:10.269Z,18.56
2023-03-29T03:23:55.691Z,17.27
2023-03-29T03:25:20.094Z,16.98
2023-03-29T03:27:05.378Z,16.94
2023-03-29T03:28:55.550Z,18.47
2023-03-29T03:31:03.745Z,24.48
2023-03-29T03:32:47.459Z,31.63
2023-03-29T03:34:29.810Z,34.60
2023-03-29T03:36:06.968Z,37.19
2023-03-29T03:37:38.134Z,33.96
2023-03-29T03:39:11.825Z,29.10
2023-03-29T03:40:50.321Z,43.27
2023-03-29T03:42:12.411Z,51.48
2023-03-29T03:43:48.627Z,44.82
2023-03-29T03:45:24.214Z,45.32
2023-03-29T03:47:13.734Z,35.99
2023-03-29T03:49:07.763Z,33.75
2023-03-29T03:50:46.426Z,38.92
2023-03-29T03:52:22.445Z,33.16
2023-03-29T03:53:58.440Z,30.72
2023-03-29T03:55:30.088Z,29.61
2023-03-29T03:57:24.654Z,29.92
2023-03-29T03:59:02.721Z,24.42
2023-03-29T04:00:52.072Z,22.60
2023-03-29T04:02:57.238Z,20.25
2023-03-29T04:04:39.136Z,19.51
2023-03-29T04:06:32.496Z,18.07
2023-03-29T04:08:24.256Z,16.14
2023-03-29T04:10:45.166Z,16.56
2023-03-29T04:12:23.959Z,15.18
2023-03-29T04:14:17.866Z,17.23
2023-03-29T04:15:57.165Z,19.78
2023-03-29T04:17:44.739Z,34.80
2023-03-29T04:19:25.575Z,36.24
2023-03-29T04:20:47.881Z,33.89
2023-03-29T04:22:41.466Z,53.78
2023-03-29T04:24:16.313Z,59.95
2023-03-29T04:25:59.292Z,117.64
2023-03-29T04:27:49.539Z,48.02
2023-03-29T04:30:16.562Z,33.62
2023-03-29T04:32:23.362Z,29.84
2023-03-29T04:34:09.133Z,33.95
2023-03-29T04:35:46.702Z,30.85
2023-03-29T04:37:34.086Z,35.62
2023-03-29T04:39:19.480Z,39.05
2023-03-29T04:40:59.211Z,41.17
2023-03-29T04:42:38.970Z,40.92
2023-03-29T04:44:24.070Z,37.39
2023-03-29T04:46:10.751Z,33.45
2023-03-29T04:48:36.486Z,39.99
2023-03-29T04:50:21.329Z,44.00
2023-03-29T04:52:14.428Z,36.86
2023-03-29T04:53:59.355Z,35.62
2023-03-29T04:55:29.390Z,37.49
2023-03-29T04:57:19.053Z,41.69
2023-03-29T04:59:17.952Z,48.44
2023-03-29T05:00:51.701Z,46.62
2023-03-29T05:02:32.456Z,36.69
2023-03-29T05:04:17.312Z,46.98
2023-03-29T05:06:06.654Z,49.54
2023-03-29T05:07:52.166Z,46.84
2023-03-29T05:09:32.039Z,45.69
2023-03-29T05:11:11.252Z,53.87
2023-03-29T05:12:33.157Z,61.33
2023-03-29T05:14:10.149Z,65.35
2023-03-29T05:15:55.369Z,39.11
2023-03-29T05:17:32.957Z,37.62
2023-03-29T05:19:21.980Z,49.89
2023-03-29T05:20:57.517Z,42.77
2023-03-29T05:22:49.747Z,43.61
2023-03-29T05:25:02.407Z,56.08
2023-03-29T05:26:38.283Z,39.48
2023-03-29T05:28:09.186Z,44.05
2023-03-29T05:29:45.238Z,39.99
2023-03-29T05:31:37.814Z,31.64
2023-03-29T05:33:12.031Z,28.98
2023-03-29T05:34:36.683Z,33.07
2023-03-29T05:35:58.670Z,35.30
2023-03-29T05:37:22.588Z,32.10
2023-03-29T05:38:50.199Z,32.88
2023-03-29T05:40:25.822Z,27.13
2023-03-29T05:42:43.349Z,27.19
2023-03-29T05:44:07.443Z,25.53
2023-03-29T05:45:44.126Z,49.29
2023-03-29T05:47:25.031Z,50.90
2023-03-29T05:48:52.772Z,28.67
2023-03-29T05:50:15.404Z,23.03
2023-03-29T05:51:42.208Z,30.63
2023-03-29T05:53:15.347Z,23.69
2023-03-29T05:54:44.829Z,27.17
2023-03-29T05:56:21.074Z,25.20
2023-03-29T05:57:57.703Z,24.55
2023-03-29T05:59:23.564Z,26.57
2023-03-29T06:00:55.139Z,25.45
2023-03-29T06:02:52.493Z,23.81
2023-03-29T06:04:19.030Z,28.29
2023-03-29T06:05:49.765Z,26.76
2023-03-29T06:07:21.321Z,27.42
2023-03-29T06:09:00.460Z,25.94
2023-03-29T06:10:39.855Z,26.52
2023-03-29T06:12:34.919Z,27.74
2023-03-29T06:13:57.516Z,29.51
2023-03-29T06:15:22.118Z,27.75
2023-03-29T06:16:47.556Z,29.24
2023-03-29T06:18:11.331Z,24.73
2023-03-29T06:19:47.959Z,28.69
2023-03-29T06:21:12.728Z,25.01
2023-03-29T06:22:46.763Z,23.85
2023-03-29T06:24:20.796Z,21.78
2023-03-29T06:26:00.712Z,27.58
2023-03-29T06:27:35.222Z,28.65
2023-03-29T06:29:12.983Z,22.32
2023-03-29T06:30:37.628Z,28.68
2023-03-29T06:32:13.548Z,20.89
2023-03-29T06:33:52.629Z,21.68
2023-03-29T06:35:52.957Z,21.86
2023-03-29T06:37:46.513Z,22.37
2023-03-29T06:39:28.040Z,17.40
2023-03-29T06:41:15.050Z,18.64
2023-03-29T06:43:02.774Z,18.81
2023-03-29T06:44:35.905Z,18.05
2023-03-29T06:46:16.169Z,21.01
2023-03-29T06:48:21.162Z,16.92
2023-03-29T06:49:55.423Z,17.63
2023-03-29T06:51:50.433Z,16.99
2023-03-29T06:53:35.818Z,19.15
2023-03-29T06:54:58.614Z,17.42
2023-03-29T06:56:32.198Z,17.26
2023-03-29T06:58:15.547Z,18.76
2023-03-29T07:00:04.887Z,16.16
2023-03-29T07:02:09.838Z,15.21
2023-03-29T07:04:03.818Z,14.59
2023-03-29T07:05:31.643Z,14.11
2023-03-29T07:07:06.293Z,14.61
2023-03-29T07:08:43.679Z,12.38
2023-03-29T07:10:38.594Z,13.19
2023-03-29T07:12:47.795Z,11.92
2023-03-29T07:14:28.731Z,12.27
2023-03-29T07:16:13.910Z,12.08
2023-03-29T07:18:17.165Z,11.60
2023-03-29T07:20:03.366Z,13.83
2023-03-29T07:21:50.320Z,13.24
2023-03-29T07:23:35.975Z,10.64
2023-03-29T07:25:12.109Z,12.17
2023-03-29T07:27:00.296Z,10.67
2023-03-29T07:28:43.968Z,11.06
2023-03-29T07:30:32.016Z,10.66
2023-03-29T07:32:24.395Z,11.23
2023-03-29T07:34:11.994Z,11.15
2023-03-29T07:35:48.319Z,11.13
2023-03-29T07:37:33.415Z,11.77
2023-03-29T07:39:08.348Z,10.20
2023-03-29T07:40:54.231Z,9.05
2023-03-29T07:42:36.566Z,9.90
2023-03-29T07:44:13.763Z,7.97
2023-03-29T07:46:07.427Z,9.24
2023-03-29T07:47:53.244Z,7.78
2023-03-29T07:49:38.587Z,7.49
2023-03-29T07:51:08.012Z,6.92
2023-03-29T07:53:04.345Z,8.51
2023-03-29T07:54:42.926Z,7.89
2023-03-29T07:56:45.112Z,10.32
2023-03-29T07:58:36.926Z,8.01
2023-03-29T08:00:11.176Z,7.17
2023-03-29T08:01:55.987Z,7.74
2023-03-29T08:03:32.592Z,7.99
2023-03-29T08:05:08.784Z,7.77
2023-03-29T08:07:02.253Z,7.58
2023-03-29T08:08:58.619Z,8.07
2023-03-29T08:10:34.196Z,7.29
2023-03-29T08:12:16.238Z,7.85
2023-03-29T08:13:52.034Z,7.19
2023-03-29T08:15:45.657Z,8.36
2023-03-29T08:17:39.325Z,8.40
2023-03-29T08:19:24.535Z,8.52
2023-03-29T08:21:20.493Z,8.58
2023-03-29T08:22:50.844Z,7.20
2023-03-29T08:24:48.984Z,8.19
2023-03-29T08:26:33.809Z,7.70
2023-03-29T08:27:58.820Z,7.88
2023-03-29T08:29:52.965Z,8.45
2023-03-29T08:31:47.015Z,7.96
2023-03-29T08:33:27.842Z,7.58
2023-03-29T08:35:11.526Z,5.42
2023-03-29T08:36:59.687Z,5.02
2023-03-29T08:38:51.518Z,4.54
2023-03-29T08:40:36.804Z,4.94
2023-03-29T08:42:22.605Z,5.12
2023-03-29T08:43:58.356Z,5.40
2023-03-29T08:46:09.689Z,9.65
2023-03-29T08:47:43.584Z,6.54
2023-03-29T08:49:18.548Z,6.02
2023-03-29T08:50:58.940Z,6.32
2023-03-29T08:52:28.032Z,6.87
2023-03-29T08:54:13.177Z,5.89
2023-03-29T08:56:51.843Z,5.86
2023-03-29T08:58:36.087Z,5.28
2023-03-29T09:00:10.540Z,5.20
2023-03-29T09:01:48.654Z,6.03
2023-03-29T09:03:22.294Z,5.70
2023-03-29T09:05:11.232Z,4.69
2023-03-29T09:06:48.934Z,3.48
2023-03-29T09:08:28.981Z,4.34
2023-03-29T09:10:03.685Z,4.60
2023-03-29T09:11:52.375Z,3.99
2023-03-29T09:13:25.723Z,4.45
2023-03-29T09:15:06.562Z,4.76
2023-03-29T09:16:53.298Z,4.76
2023-03-29T09:18:26.392Z,4.86
2023-03-29T09:20:00.191Z,5.21
2023-03-29T09:21:36.379Z,5.90
2023-03-29T09:23:12.130Z,6.04
2023-03-29T09:25:08.968Z,4.78
2023-03-29T09:26:49.990Z,4.94
2023-03-29T09:28:41.885Z,6.16
2023-03-29T09:30:27.051Z,5.48
2023-03-29T09:31:58.706Z,6.02
2023-03-29T09:33:34.620Z,5.74
2023-03-29T09:35:15.382Z,5.53
2023-03-29T09:37:00.704Z,5.05
2023-03-29T09:38:22.907Z,4.27
2023-03-29T09:40:05.286Z,3.87
2023-03-29T09:41:41.231Z,4.05
2023-03-29T09:43:26.166Z,4.02
2023-03-29T09:44:48.551Z,5.23
2023-03-29T09:46:16.061Z,4.44
2023-03-29T09:47:41.078Z,4.81
2023-03-29T09:49:04.973Z,5.00
2023-03-29T09:50:47.362Z,5.16
2023-03-29T09:52:16.775Z,4.78
2023-03-29T09:54:06.301Z,4.72
2023-03-29T09:56:06.646Z,4.75
2023-03-29T09:58:27.374Z,4.67
2023-03-29T10:00:04.211Z,4.13
2023-03-29T10:01:48.297Z,4.10
2023-03-29T10:03:24.494Z,3.65
2023-03-29T10:04:58.547Z,3.68
2023-03-29T10:06:34.194Z,3.93
2023-03-29T10:08:08.327Z,3.81
2023-03-29T10:09:49.336Z,3.87
2023-03-29T10:11:14.366Z,4.87
2023-03-29T10:12:50.415Z,4.55
2023-03-29T10:14:31.173Z,4.95
2023-03-29T10:16:02.593Z,4.50
2023-03-29T10:17:24.398Z,4.31
2023-03-29T10:19:09.372Z,4.50
2023-03-29T10:20:48.401Z,4.92
2023-03-29T10:22:21.475Z,4.60
2023-03-29T10:24:15.421Z,4.77
2023-03-29T10:25:38.765Z,3.43
2023-03-29T10:27:04.417Z,4.08
2023-03-29T10:28:39.632Z,4.13
2023-03-29T10:30:03.652Z,3.91
2023-03-29T10:31:32.991Z,3.94
2023-03-29T10:33:17.775Z,4.52
2023-03-29T10:34:47.870Z,4.89
2023-03-29T10:36:09.613Z,4.67
2023-03-29T10:37:33.556Z,4.94
2023-03-29T10:39:18.995Z,4.48
2023-03-29T10:41:04.614Z,4.28
2023-03-29T10:42:55.329Z,3.90
2023-03-29T10:44:32.916Z,4.36
2023-03-29T10:46:14.363Z,3.84
2023-03-29T10:47:48.581Z,4.38
2023-03-29T10:49:42.096Z,3.97
2023-03-29T10:51:15.494Z,4.80
2023-03-29T10:52:37.916Z,4.43
2023-03-29T10:53:59.635Z,4.20
2023-03-29T10:55:44.507Z,4.11
2023-03-29T10:57:17.500Z,3.83
2023-03-29T10:59:04.148Z,4.41
2023-03-29T11:00:40.149Z,4.18
2023-03-29T11:02:04.073Z,5.02
2023-03-29T11:03:40.183Z,5.49
2023-03-29T11:05:13.579Z,4.68
2023-03-29T11:06:47.438Z,6.14
2023-03-29T11:08:09.015Z,5.44
2023-03-29T11:09:49.822Z,4.48
2023-03-29T11:11:23.344Z,4.78
2023-03-29T11:13:16.627Z,5.08
2023-03-29T11:15:13.550Z,4.48
2023-03-29T11:16:43.301Z,5.40
2023-03-29T11:18:28.799Z,5.05
2023-03-29T11:19:53.110Z,4.55
2023-03-29T11:21:14.596Z,4.21
2023-03-29T11:22:58.549Z,4.35
2023-03-29T11:24:33.790Z,4.16
2023-03-29T11:26:14.245Z,3.76
2023-03-29T11:28:07.942Z,4.33
2023-03-29T11:29:41.475Z,4.36
2023-03-29T11:31:23.004Z,3.79
2023-03-29T11:32:56.780Z,4.47
2023-03-29T11:34:30.013Z,5.02
2023-03-29T11:36:01.778Z,4.22
2023-03-29T11:37:47.528Z,4.08
2023-03-29T11:39:09.549Z,4.70
2023-03-29T11:40:44.635Z,3.87
2023-03-29T11:42:29.608Z,4.11
2023-03-29T11:43:53.217Z,4.35
2023-03-29T11:45:25.349Z,4.64
2023-03-29T11:46:54.743Z,4.23
2023-03-29T11:48:28.322Z,7.52
2023-03-29T11:50:07.236Z,5.47
2023-03-29T11:51:54.302Z,4.28
2023-03-29T11:53:18.478Z,3.22
2023-03-29T11:54:52.268Z,4.05
2023-03-29T11:56:26.237Z,3.91
2023-03-29T11:57:50.917Z,3.91
2023-03-29T11:59:26.367Z,5.93
2023-03-29T12:01:04.245Z,5.00
2023-03-29T12:02:26.476Z,6.10
2023-03-29T12:03:51.040Z,4.34
2023-03-29T12:05:44.659Z,4.52
2023-03-29T12:07:17.820Z,4.68
2023-03-29T12:08:41.657Z,4.55
2023-03-29T12:10:26.642Z,4.81
2023-03-29T12:12:07.621Z,4.45
2023-03-29T12:14:00.849Z,4.58
2023-03-29T12:15:41.615Z,5.62
2023-03-29T12:17:26.404Z,4.54
2023-03-29T12:18:55.667Z,4.30
2023-03-29T12:20:31.563Z,4.27
2023-03-29T12:22:16.188Z,4.50
2023-03-29T12:24:00.584Z,4.45
2023-03-29T12:25:34.014Z,4.51
2023-03-29T12:27:08.227Z,4.08
2023-03-29T12:28:32.880Z,3.84
2023-03-29T12:29:55.271Z,4.02
2023-03-29T12:31:31.163Z,4.37
2023-03-29T12:33:15.137Z,4.83
2023-03-29T12:35:01.485Z,3.82
2023-03-29T12:37:01.967Z,3.48
2023-03-29T12:39:02.049Z,4.46
2023-03-29T12:40:43.046Z,4.02
2023-03-29T12:42:23.400Z,4.06
2023-03-29T12:44:00.575Z,4.62
2023-03-29T12:45:50.787Z,4.02
2023-03-29T12:47:26.492Z,4.12
2023-03-29T12:49:07.538Z,3.88
2023-03-29T12:51:01.109Z,3.85
2023-03-29T12:52:34.359Z,5.10
2023-03-29T12:54:08.257Z,4.88
2023-03-29T12:55:56.717Z,5.70
2023-03-29T12:57:30.279Z,7.73
2023-03-29T12:59:09.174Z,7.43
2023-03-29T13:00:33.339Z,5.24
2023-03-29T13:02:15.911Z,4.18
2023-03-29T13:03:49.835Z,4.21
2023-03-29T13:05:30.653Z,7.43
2023-03-29T13:07:14.466Z,3.87
2023-03-29T13:09:07.969Z,3.92
2023-03-29T13:10:50.466Z,2.95
2023-03-29T13:12:14.523Z,3.33
2023-03-29T13:14:03.948Z,3.60
2023-03-29T13:15:33.009Z,3.40
2023-03-29T13:16:59.785Z,3.08
2023-03-29T13:18:29.685Z,3.19
2023-03-29T13:20:03.016Z,2.96
2023-03-29T13:21:24.959Z,3.16
2023-03-29T13:22:58.608Z,4.22
2023-03-29T13:24:32.046Z,4.11
2023-03-29T13:26:07.559Z,4.01
2023-03-29T13:27:43.472Z,4.42
2023-03-29T13:29:28.235Z,3.93
2023-03-29T13:31:09.985Z,4.44
2023-03-29T13:32:39.384Z,3.98
2023-03-29T13:34:19.813Z,4.48
2023-03-29T13:36:13.291Z,4.47
2023-03-29T13:38:06.848Z,4.38
2023-03-29T13:39:49.505Z,4.15
2023-03-29T13:41:29.933Z,3.49
2023-03-29T13:43:15.166Z,3.96
2023-03-29T13:44:56.285Z,4.18
2023-03-29T13:46:49.680Z,4.16
2023-03-29T13:48:11.023Z,10.36
2023-03-29T13:49:44.532Z,4.58
2023-03-29T13:51:17.759Z,6.42
2023-03-29T13:52:51.412Z,3.14
2023-03-29T13:54:20.254Z,2.62
2023-03-29T13:55:49.830Z,3.07
2023-03-29T13:57:13.650Z,2.77
2023-03-29T13:58:49.589Z,3.01
2023-03-29T14:00:17.712Z,4.41
2023-03-29T14:02:11.490Z,5.89
2023-03-29T14:04:00.633Z,3.02
2023-03-29T14:05:25.065Z,3.58
2023-03-29T14:06:47.328Z,3.65
2023-03-29T14:08:10.853Z,3.15
2023-03-29T14:09:32.685Z,2.81
2023-03-29T14:11:18.578Z,3.24
2023-03-29T14:13:03.854Z,4.45
2023-03-29T14:14:51.721Z,3.92
2023-03-29T14:16:51.597Z,3.62
2023-03-29T14:18:13.424Z,4.55
2023-03-29T14:19:35.389Z,3.36
2023-03-29T14:21:07.535Z,3.71
2023-03-29T14:22:43.659Z,10.50
2023-03-29T14:24:15.489Z,7.91
2023-03-29T14:25:49.183Z,8.67
2023-03-29T14:27:29.929Z,4.43
2023-03-29T14:28:56.227Z,3.45
2023-03-29T14:30:31.924Z,2.96
2023-03-29T14:32:07.928Z,5.46
2023-03-29T14:33:52.165Z,5.06
2023-03-29T14:35:33.165Z,4.27
2023-03-29T14:37:18.273Z,3.78
2023-03-29T14:38:59.443Z,4.70
2023-03-29T14:40:40.209Z,5.43
2023-03-29T14:42:16.009Z,6.46
2023-03-29T14:43:51.728Z,5.10
2023-03-29T14:45:13.473Z,3.58
2023-03-29T14:46:56.066Z,3.92
2023-03-29T14:48:36.732Z,4.69
2023-03-29T14:50:22.263Z,5.57
2023-03-29T14:51:46.265Z,4.14
2023-03-29T14:53:39.808Z,3.94
2023-03-29T14:55:25.802Z,3.37
2023-03-29T14:57:08.193Z,3.71
2023-03-29T14:59:01.684Z,4.02
2023-03-29T15:00:24.543Z,4.05
2023-03-29T15:01:58.438Z,4.47
2023-03-29T15:03:31.970Z,4.50
2023-03-29T15:05:11.714Z,5.24
2023-03-29T15:06:56.610Z,4.68
2023-03-29T15:08:32.493Z,4.22
2023-03-29T15:10:18.401Z,4.10
2023-03-29T15:11:54.319Z,4.89
2023-03-29T15:13:28.364Z,3.43
2023-03-29T15:15:13.577Z,4.11
2023-03-29T15:16:59.238Z,3.90
2023-03-29T15:18:52.409Z,4.08
2023-03-29T15:20:28.419Z,12.24
2023-03-29T15:22:13.315Z,4.61
2023-03-29T15:23:58.373Z,4.63
2023-03-29T15:25:43.852Z,4.27
2023-03-29T15:27:29.133Z,5.09
2023-03-29T15:29:14.646Z,5.54
2023-03-29T15:31:07.917Z,5.58
2023-03-29T15:32:54.954Z,6.92
2023-03-29T15:34:48.546Z,4.36
2023-03-29T15:36:12.491Z,4.62
2023-03-29T15:37:53.321Z,5.61
2023-03-29T15:39:30.072Z,5.00
2023-03-29T15:41:15.267Z,4.55
2023-03-29T15:43:00.427Z,4.67
2023-03-29T15:44:36.250Z,3.85
2023-03-29T15:46:12.289Z,4.92
2023-03-29T15:47:34.602Z,4.23
2023-03-29T15:49:08.470Z,4.60
2023-03-29T15:51:05.477Z,4.62
2023-03-29T15:52:30.901Z,4.70
2023-03-29T15:54:15.866Z,4.46
2023-03-29T15:55:50.772Z,4.73
2023-03-29T15:57:24.528Z,4.93
2023-03-29T15:59:09.782Z,4.92
2023-03-29T16:00:43.909Z,4.61
2023-03-29T16:02:24.255Z,4.56
2023-03-29T16:03:59.903Z,5.23
2023-03-29T16:05:26.067Z,5.29
2023-03-29T16:07:11.321Z,6.76
2023-03-29T16:08:58.864Z,7.44
2023-03-29T16:10:32.893Z,6.15
2023-03-29T16:12:07.529Z,8.80
2023-03-29T16:13:36.634Z,5.88
2023-03-29T16:15:21.992Z,6.80
2023-03-29T16:16:46.332Z,13.54
2023-03-29T16:18:19.846Z,9.13
2023-03-29T16:19:53.011Z,12.42
2023-03-29T16:21:26.696Z,238.83
2023-03-29T16:23:11.929Z,35.96
2023-03-29T16:24:57.257Z,37.86
2023-03-29T16:26:33.010Z,30.11
2023-03-29T16:28:13.659Z,53.23
2023-03-29T16:29:58.807Z,87.72
2023-03-29T16:31:39.605Z,118.73
2023-03-29T16:33:24.835Z,82.69
2023-03-29T16:34:58.888Z,53.28
2023-03-29T16:36:43.154Z,29.21
2023-03-29T16:38:16.222Z,22.94
2023-03-29T16:40:04.937Z,31.21
2023-03-29T16:41:53.413Z,26.61
2023-03-29T16:43:46.891Z,21.61
2023-03-29T16:45:40.739Z,29.73
2023-03-29T16:47:16.403Z,17.00
2023-03-29T16:49:10.238Z,13.76
2023-03-29T16:50:41.591Z,12.92
2023-03-29T16:52:17.689Z,18.98
2023-03-29T16:53:47.764Z,14.13
2023-03-29T16:55:20.913Z,11.06
2023-03-29T16:56:52.917Z,12.36
2023-03-29T16:58:38.767Z,18.98
2023-03-29T17:00:23.787Z,13.83
2023-03-29T17:02:05.320Z,14.47
2023-03-29T17:03:34.434Z,15.43
2023-03-29T17:05:01.128Z,14.74
2023-03-29T17:06:27.240Z,12.53
2023-03-29T17:08:12.624Z,11.84
2023-03-29T17:09:46.253Z,12.69
2023-03-29T17:11:07.834Z,11.83
2023-03-29T17:12:41.519Z,13.71
2023-03-29T17:14:15.523Z,13.58
2023-03-29T17:15:51.506Z,15.68
2023-03-29T17:17:25.219Z,18.09
2023-03-29T17:18:49.528Z,17.37
2023-03-29T17:20:23.922Z,16.54
2023-03-29T17:21:59.773Z,17.24
2023-03-29T17:23:33.171Z,18.04
2023-03-29T17:25:06.960Z,19.31
2023-03-29T17:26:53.053Z,19.77
2023-03-29T17:28:37.937Z,24.50
2023-03-29T17:30:00.038Z,18.95
2023-03-29T17:31:46.470Z,24.06
2023-03-29T17:33:25.906Z,19.02
2023-03-29T17:35:03.328Z,21.49
2023-03-29T17:36:51.257Z,24.20
2023-03-29T17:38:26.708Z,26.36
2023-03-29T17:40:00.409Z,47.48
2023-03-29T17:41:50.514Z,31.27
2023-03-29T17:43:12.333Z,30.32
2023-03-29T17:44:54.280Z,29.04
2023-03-29T17:46:47.726Z,32.98
2023-03-29T17:48:32.944Z,23.93
2023-03-29T17:50:08.552Z,21.08
2023-03-29T17:51:42.335Z,20.41
2023-03-29T17:53:13.597Z,18.42
2023-03-29T17:54:38.085Z,17.03
2023-03-29T17:56:23.213Z,15.69
2023-03-29T17:58:07.523Z,15.13
2023-03-29T17:59:43.078Z,14.92
2023-03-29T18:01:19.362Z,14.76
2023-03-29T18:03:00.752Z,14.87
2023-03-29T18:04:29.786Z,16.02
2023-03-29T18:05:54.327Z,17.21
2023-03-29T18:07:27.958Z,26.76
2023-03-29T18:09:09.760Z,23.10
2023-03-29T18:10:34.589Z,22.28
2023-03-29T18:11:56.725Z,21.04
2023-03-29T18:13:29.836Z,19.40
2023-03-29T18:15:11.621Z,18.72
2023-03-29T18:16:57.077Z,159.80
2023-03-29T18:18:32.939Z,22.36
2023-03-29T18:20:13.941Z,16.63
2023-03-29T18:21:59.675Z,17.73
2023-03-29T18:23:23.639Z,20.34
2023-03-29T18:24:59.527Z,23.27
2023-03-29T18:26:34.448Z,26.49
2023-03-29T18:28:19.906Z,25.10
2023-03-29T18:29:43.966Z,32.32
2023-03-29T18:31:19.123Z,51.68
2023-03-29T18:32:56.555Z,65.38
2023-03-29T18:34:19.031Z,83.46
2023-03-29T18:35:51.393Z,67.63
2023-03-29T18:37:17.684Z,46.23
2023-03-29T18:38:55.108Z,41.38
2023-03-29T18:40:37.051Z,42.25
2023-03-29T18:42:01.959Z,58.53
2023-03-29T18:43:56.054Z,83.26
2023-03-29T18:45:30.316Z,100.75
2023-03-29T18:47:01.999Z,73.19
2023-03-29T18:48:28.161Z,60.93
2023-03-29T18:50:09.522Z,76.27
2023-03-29T18:51:32.981Z,53.54
2023-03-29T18:52:57.970Z,45.42
2023-03-29T18:54:40.328Z,37.32
2023-03-29T18:56:05.090Z,40.76
2023-03-29T18:57:39.335Z,39.31
2023-03-29T18:59:05.154Z,33.97
2023-03-29T19:00:29.504Z,29.44
2023-03-29T19:01:51.842Z,26.33
2023-03-29T19:03:15.822Z,23.09
2023-03-29T19:04:47.661Z,24.25
2023-03-29T19:06:21.165Z,21.93
2023-03-29T19:08:04.522Z,20.57
2023-03-29T19:09:28.880Z,26.04
2023-03-29T19:11:05.003Z,24.75
2023-03-29T19:12:38.108Z,24.46
2023-03-29T19:14:23.273Z,29.21
2023-03-29T19:15:47.833Z,27.42
2023-03-29T19:17:21.863Z,23.68
2023-03-29T19:19:16.529Z,21.16
2023-03-29T19:20:51.312Z,22.49
2023-03-29T19:22:35.852Z,23.41
2023-03-29T19:24:12.055Z,24.23
2023-03-29T19:25:48.031Z,19.78
2023-03-29T19:27:12.021Z,19.02
2023-03-29T19:28:35.061Z,19.35
2023-03-29T19:29:59.373Z,19.06
2023-03-29T19:31:23.712Z,17.82
2023-03-29T19:33:06.645Z,22.59
2023-03-29T19:34:30.454Z,22.12
2023-03-29T19:35:59.915Z,22.50
2023-03-29T19:37:31.498Z,23.21
2023-03-29T19:39:07.759Z,22.27
2023-03-29T19:40:43.676Z,21.54
2023-03-29T19:42:08.187Z,22.50
2023-03-29T19:43:29.788Z,24.22
2023-03-29T19:45:05.678Z,22.10
2023-03-29T19:46:48.130Z,21.26
2023-03-29T19:48:28.778Z,22.84
2023-03-29T19:49:51.492Z,23.07
2023-03-29T19:51:27.276Z,22.52
2023-03-29T19:53:09.431Z,22.15
2023-03-29T19:54:54.975Z,21.14
2023-03-29T19:56:17.395Z,22.22
2023-03-29T19:57:39.422Z,22.41
2023-03-29T19:59:01.364Z,20.91
2023-03-29T20:00:46.796Z,19.74
2023-03-29T20:02:16.121Z,19.79
2023-03-29T20:03:38.734Z,20.20
2023-03-29T20:05:04.377Z,20.20
2023-03-29T20:06:26.201Z,19.17
2023-03-29T20:08:07.145Z,19.41
2023-03-29T20:09:30.850Z,19.54
2023-03-29T20:10:53.050Z,21.31
2023-03-29T20:12:16.970Z,19.92
2023-03-29T20:13:39.301Z,20.04
2023-03-29T20:15:01.651Z,19.39
2023-03-29T20:16:34.316Z,20.79
2023-03-29T20:18:09.857Z,19.76
2023-03-29T20:19:31.735Z,21.31
2023-03-29T20:20:55.544Z,20.72
2023-03-29T20:22:37.586Z,20.04
2023-03-29T20:24:13.418Z,19.31
2023-03-29T20:25:48.086Z,19.49
2023-03-29T20:27:33.522Z,19.91
2023-03-29T20:29:09.523Z,19.35
2023-03-29T20:30:44.240Z,23.11
2023-03-29T20:32:06.677Z,22.17
2023-03-29T20:33:28.610Z,20.24
2023-03-29T20:35:03.279Z,21.53
2023-03-29T20:36:30.826Z,19.86
2023-03-29T20:38:09.860Z,20.65
2023-03-29T20:39:43.188Z,21.64
2023-03-29T20:41:14.066Z,20.56
2023-03-29T20:42:38.144Z,19.75
2023-03-29T20:44:04.740Z,20.79
2023-03-29T20:45:30.442Z,21.21
2023-03-29T20:47:10.944Z,22.56
2023-03-29T20:48:53.404Z,21.84
2023-03-29T20:50:30.524Z,22.15
2023-03-29T20:52:00.153Z,20.94
2023-03-29T20:53:35.968Z,21.35
2023-03-29T20:55:00.365Z,22.27
2023-03-29T20:56:26.171Z,29.97
2023-03-29T20:57:51.014Z,27.49
2023-03-29T20:59:13.133Z,24.95
2023-03-29T21:00:48.424Z,24.65
2023-03-29T21:02:22.535Z,25.07
2023-03-29T21:04:08.130Z,24.27
2023-03-29T21:05:39.823Z,23.62
2023-03-29T21:07:09.489Z,24.13
2023-03-29T21:08:33.664Z,21.33
2023-03-29T21:10:11.328Z,21.29
2023-03-29T21:11:52.949Z,22.27
2023-03-29T21:13:26.520Z,21.68
2023-03-29T21:15:08.574Z,22.37
2023-03-29T21:16:55.389Z,21.73
2023-03-29T21:18:26.781Z,22.34
2023-03-29T21:19:49.012Z,22.90
2023-03-29T21:21:10.600Z,22.22
2023-03-29T21:22:36.573Z,22.23
2023-03-29T21:24:10.519Z,21.14